createdAt,value
2019-01-29T00:00:28.848Z,0.80
2019-01-29T00:02:57.369Z,0.90
2019-01-29T00:07:54.057Z,0.90
2019-01-29T00:10:22.589Z,0.90
2019-01-29T00:12:51.058Z,0.90
2019-01-29T00:15:19.514Z,0.80
2019-01-29T00:17:47.962Z,0.90
2019-01-29T00:20:16.588Z,0.90
2019-01-29T00:22:45.106Z,0.80
2019-01-29T00:25:14.235Z,0.90
2019-01-29T00:27:42.744Z,0.90
2019-01-29T00:32:40.404Z,0.90
2019-01-29T00:35:09.244Z,1.00
2019-01-29T00:37:37.765Z,1.00
2019-01-29T00:40:09.384Z,0.90
2019-01-29T00:42:37.828Z,0.70
2019-01-29T00:45:09.244Z,1.00
2019-01-29T00:47:37.794Z,1.00
2019-01-29T00:50:08.489Z,1.10
2019-01-29T00:52:41.888Z,1.00
2019-01-29T00:55:10.439Z,1.10
2019-01-29T00:57:38.898Z,1.50
2019-01-29T01:00:13.521Z,0.80
2019-01-29T01:02:42.005Z,0.80
2019-01-29T01:05:10.591Z,1.50
2019-01-29T01:07:39.109Z,0.80
2019-01-29T01:10:10.617Z,0.70
2019-01-29T01:12:39.071Z,0.70
2019-01-29T01:15:09.990Z,0.70
2019-01-29T01:17:38.446Z,0.90
2019-01-29T01:20:12.954Z,0.50
2019-01-29T01:22:41.515Z,0.80
2019-01-29T01:25:10.864Z,0.90
2019-01-29T01:27:39.402Z,0.60
2019-01-29T01:30:11.093Z,1.00
2019-01-29T01:35:07.997Z,0.80
2019-01-29T01:37:36.474Z,1.00
2019-01-29T01:40:16.709Z,0.70
2019-01-29T01:42:45.278Z,2.50
2019-01-29T01:45:13.934Z,0.90
2019-01-29T01:47:42.415Z,1.00
2019-01-29T01:50:13.038Z,1.00
2019-01-29T01:57:39.477Z,0.80
2019-01-29T02:00:11.013Z,1.00
2019-01-29T02:02:39.494Z,1.20
2019-01-29T02:05:08.917Z,1.00
2019-01-29T02:07:37.432Z,1.60
2019-01-29T02:10:23.239Z,1.00
2019-01-29T02:12:51.855Z,1.00
2019-01-29T02:15:20.393Z,1.20
2019-01-29T02:17:48.833Z,1.10
2019-01-29T02:20:17.945Z,0.90
2019-01-29T02:25:15.083Z,1.00
2019-01-29T02:30:17.442Z,1.50
2019-01-29T02:35:14.306Z,1.20
2019-01-29T02:37:42.833Z,1.00
2019-01-29T02:40:22.961Z,1.00
2019-01-29T02:42:51.498Z,1.00
2019-01-29T02:47:48.644Z,0.90
2019-01-29T02:50:17.951Z,0.80
2019-01-29T02:52:46.506Z,1.00
2019-01-29T02:55:15.699Z,0.90
2019-01-29T02:57:44.310Z,0.90
2019-01-29T03:00:18.438Z,1.00
2019-01-29T03:02:46.975Z,1.00
2019-01-29T03:05:17.189Z,1.00
2019-01-29T03:07:45.771Z,0.90
2019-01-29T03:10:19.707Z,1.40
2019-01-29T03:12:48.239Z,0.90
2019-01-29T03:15:19.131Z,0.90
2019-01-29T03:17:47.678Z,0.90
2019-01-29T03:20:16.896Z,0.90
2019-01-29T03:22:45.517Z,0.90
2019-01-29T03:25:14.128Z,0.80
2019-01-29T03:27:42.731Z,0.90
2019-01-29T03:30:19.219Z,0.70
2019-01-29T03:32:47.826Z,0.80
2019-01-29T03:35:16.893Z,0.80
2019-01-29T03:37:45.506Z,0.70
2019-01-29T03:40:26.322Z,0.70
2019-01-29T03:42:54.860Z,0.70
2019-01-29T03:45:23.795Z,0.40
2019-01-29T03:47:52.381Z,0.60
2019-01-29T03:50:22.566Z,0.60
2019-01-29T03:52:51.855Z,0.50
2019-01-29T03:55:20.463Z,0.60
2019-01-29T03:57:48.988Z,0.60
2019-01-29T04:00:19.784Z,0.20
2019-01-29T04:02:48.230Z,0.60
2019-01-29T04:05:16.702Z,0.50
2019-01-29T04:07:45.140Z,0.60
2019-01-29T04:10:16.164Z,0.60
2019-01-29T04:12:45.628Z,0.10
2019-01-29T04:15:16.424Z,0.50
2019-01-29T04:17:44.902Z,0.50
2019-01-29T04:20:18.654Z,0.50
2019-01-29T04:22:47.259Z,0.50
2019-01-29T04:25:15.964Z,0.50
2019-01-29T04:27:44.565Z,0.50
2019-01-29T04:30:15.404Z,0.50
2019-01-29T04:32:43.923Z,0.40
2019-01-29T04:35:12.592Z,0.50
2019-01-29T04:37:41.028Z,0.40
2019-01-29T04:40:12.058Z,0.60
2019-01-29T04:42:40.524Z,0.30
2019-01-29T04:45:11.407Z,0.30
2019-01-29T04:47:39.863Z,0.00
2019-01-29T04:50:11.140Z,0.30
2019-01-29T04:55:10.645Z,0.40
2019-01-29T04:57:39.153Z,0.50
2019-01-29T05:00:16.021Z,0.50
2019-01-29T05:02:44.536Z,0.50
2019-01-29T05:05:13.324Z,0.50
2019-01-29T05:07:41.770Z,0.50
2019-01-29T05:10:12.905Z,0.10
2019-01-29T05:12:41.342Z,0.50
2019-01-29T05:15:15.003Z,0.70
2019-01-29T05:17:43.556Z,0.60
2019-01-29T05:20:14.463Z,0.50
2019-01-29T05:22:42.905Z,0.60
2019-01-29T05:25:11.833Z,0.40
2019-01-29T05:27:40.419Z,0.70
2019-01-29T05:30:12.325Z,1.00
2019-01-29T05:32:40.844Z,0.40
2019-01-29T05:35:10.027Z,0.50
2019-01-29T05:37:38.492Z,0.40
2019-01-29T05:40:18.071Z,0.30
2019-01-29T05:42:46.509Z,0.40
2019-01-29T05:45:17.192Z,0.50
2019-01-29T05:47:45.753Z,0.30
2019-01-29T05:50:15.438Z,0.20
2019-01-29T05:52:44.347Z,0.00
2019-01-29T05:55:14.476Z,-0.20
2019-01-29T05:57:43.177Z,-0.10
2019-01-29T06:00:17.705Z,-0.10
2019-01-29T06:02:48.353Z,-0.10
2019-01-29T06:05:16.653Z,-0.10
2019-01-29T06:07:45.262Z,0.20
2019-01-29T06:10:15.642Z,-0.70
2019-01-29T06:12:44.273Z,-0.30
2019-01-29T06:15:21.791Z,-0.30
2019-01-29T06:17:50.400Z,0.00
2019-01-29T06:20:20.923Z,-0.20
2019-01-29T06:22:49.477Z,-0.20
2019-01-29T06:25:18.085Z,-0.10
2019-01-29T06:27:46.617Z,-0.20
2019-01-29T06:30:17.543Z,-0.10
2019-01-29T06:32:46.071Z,0.00
2019-01-29T06:35:16.620Z,0.10
2019-01-29T06:37:45.224Z,0.10
2019-01-29T06:40:16.529Z,0.20
2019-01-29T06:42:45.003Z,0.30
2019-01-29T06:45:15.855Z,0.30
2019-01-29T06:47:44.773Z,0.30
2019-01-29T06:50:16.162Z,0.30
2019-01-29T06:52:44.611Z,0.40
2019-01-29T06:57:42.809Z,0.30
2019-01-29T07:00:16.487Z,0.30
2019-01-29T07:02:45.073Z,0.30
2019-01-29T07:05:13.641Z,0.30
2019-01-29T07:07:42.085Z,0.30
2019-01-29T07:10:15.796Z,0.30
2019-01-29T07:12:44.415Z,0.40
2019-01-29T07:15:17.247Z,0.40
2019-01-29T07:17:46.992Z,0.30
2019-01-29T07:20:15.524Z,0.50
2019-01-29T07:22:43.989Z,0.50
2019-01-29T07:25:12.808Z,0.50
2019-01-29T07:27:42.787Z,0.40
2019-01-29T07:30:14.393Z,0.30
2019-01-29T07:32:42.844Z,0.60
2019-01-29T07:35:11.393Z,0.40
2019-01-29T07:37:39.842Z,0.40
2019-01-29T07:40:10.207Z,0.40
2019-01-29T07:42:38.680Z,0.50
2019-01-29T07:45:10.566Z,0.50
2019-01-29T07:47:39.096Z,0.70
2019-01-29T07:50:09.878Z,0.70
2019-01-29T07:52:38.586Z,0.50
2019-01-29T07:55:09.300Z,0.70
2019-01-29T07:57:37.749Z,0.60
2019-01-29T08:00:14.734Z,0.50
2019-01-29T08:02:43.286Z,0.70
2019-01-29T08:05:12.468Z,0.60
2019-01-29T08:07:40.978Z,0.60
2019-01-29T08:10:12.406Z,0.60
2019-01-29T08:12:40.859Z,0.20
2019-01-29T08:15:12.632Z,0.60
2019-01-29T08:17:41.140Z,0.50
2019-01-29T08:20:11.944Z,0.60
2019-01-29T08:25:10.167Z,0.40
2019-01-29T08:27:38.772Z,0.30
2019-01-29T08:30:12.722Z,0.70
2019-01-29T08:32:41.338Z,0.80
2019-01-29T08:35:12.020Z,0.90
2019-01-29T08:37:40.636Z,0.90
2019-01-29T08:40:11.481Z,0.80
2019-01-29T08:42:39.984Z,0.90
2019-01-29T08:45:11.668Z,0.90
2019-01-29T08:47:40.107Z,0.90
2019-01-29T08:50:11.665Z,0.60
2019-01-29T08:52:40.133Z,0.60
2019-01-29T08:55:10.793Z,0.90
2019-01-29T08:57:39.029Z,0.90
2019-01-29T09:00:16.156Z,1.00
2019-01-29T09:02:44.641Z,0.90
2019-01-29T09:05:13.926Z,1.20
2019-01-29T09:07:43.037Z,1.30
2019-01-29T09:10:19.417Z,1.50
2019-01-29T09:12:48.149Z,1.60
2019-01-29T09:15:21.214Z,1.80
2019-01-29T09:17:50.205Z,1.80
2019-01-29T09:20:20.447Z,1.80
2019-01-29T09:22:48.997Z,2.20
2019-01-29T09:27:47.389Z,1.80
2019-01-29T09:30:22.483Z,2.10
2019-01-29T09:32:51.129Z,2.20
2019-01-29T09:35:19.601Z,2.40
2019-01-29T09:37:48.157Z,2.50
2019-01-29T09:40:21.541Z,2.40
2019-01-29T09:42:50.229Z,2.60
2019-01-29T09:45:20.193Z,2.60
2019-01-29T09:47:48.820Z,3.00
2019-01-29T09:50:22.225Z,3.30
2019-01-29T09:52:51.746Z,3.00
2019-01-29T09:55:29.089Z,2.90
2019-01-29T09:57:52.849Z,2.80
2019-01-29T10:00:32.854Z,2.80
2019-01-29T10:03:01.389Z,2.70
2019-01-29T10:05:29.939Z,2.70
2019-01-29T10:07:59.120Z,2.70
2019-01-29T10:12:55.912Z,2.60
2019-01-29T10:15:32.832Z,2.80
2019-01-29T10:18:01.365Z,2.30
2019-01-29T10:20:30.150Z,2.40
2019-01-29T10:22:58.587Z,2.60
2019-01-29T10:25:27.220Z,2.80
2019-01-29T10:27:55.805Z,2.90
2019-01-29T10:30:26.193Z,3.00
2019-01-29T10:32:54.902Z,3.20
2019-01-29T10:35:25.814Z,3.30
2019-01-29T10:37:54.425Z,3.20
2019-01-29T10:40:25.373Z,3.70
2019-01-29T10:42:54.180Z,3.40
2019-01-29T10:47:51.303Z,3.50
2019-01-29T10:50:22.192Z,3.40
2019-01-29T10:52:51.609Z,3.40
2019-01-29T10:55:20.195Z,3.60
2019-01-29T10:57:48.905Z,3.60
2019-01-29T11:00:20.426Z,4.10
2019-01-29T11:02:48.993Z,4.10
2019-01-29T11:05:19.750Z,4.10
2019-01-29T11:07:48.323Z,3.50
2019-01-29T11:10:18.344Z,3.90
2019-01-29T11:12:46.820Z,3.70
2019-01-29T11:15:18.416Z,3.40
2019-01-29T11:17:46.962Z,3.10
2019-01-29T11:22:44.608Z,2.80
2019-01-29T11:25:16.684Z,3.20
2019-01-29T11:27:45.406Z,2.70
2019-01-29T11:30:16.938Z,2.70
2019-01-29T11:32:45.410Z,2.70
2019-01-29T11:35:14.588Z,2.70
2019-01-29T11:37:43.137Z,2.80
2019-01-29T11:40:17.551Z,2.80
2019-01-29T11:42:46.024Z,2.80
2019-01-29T11:45:20.442Z,2.80
2019-01-29T11:47:48.946Z,2.70
2019-01-29T11:50:17.580Z,2.90
2019-01-29T11:52:46.065Z,2.80
2019-01-29T11:55:14.683Z,2.90
2019-01-29T11:57:43.198Z,3.00
2019-01-29T12:00:39.808Z,3.00
2019-01-29T12:03:08.327Z,3.00
2019-01-29T12:05:36.870Z,3.10
2019-01-29T12:08:06.284Z,3.10
2019-01-29T12:10:35.084Z,3.10
2019-01-29T12:13:03.823Z,3.10
2019-01-29T12:15:32.363Z,3.20
2019-01-29T12:18:00.842Z,3.80
2019-01-29T12:20:29.335Z,3.60
2019-01-29T12:22:57.838Z,4.20
2019-01-29T12:25:26.387Z,4.00
2019-01-29T12:27:54.833Z,3.80
2019-01-29T12:30:30.194Z,3.30
2019-01-29T12:33:00.877Z,3.60
2019-01-29T12:35:29.574Z,3.40
2019-01-29T12:37:58.046Z,3.20
2019-01-29T12:40:26.658Z,3.00
2019-01-29T12:42:55.239Z,2.60
2019-01-29T12:45:24.289Z,2.40
2019-01-29T12:47:52.973Z,2.30
2019-01-29T12:50:31.924Z,1.60
2019-01-29T12:53:14.193Z,2.10
2019-01-29T12:55:42.655Z,2.00
2019-01-29T12:58:11.201Z,1.80
2019-01-29T13:00:41.360Z,1.40
2019-01-29T13:03:09.905Z,1.60
2019-01-29T13:05:38.455Z,1.60
2019-01-29T13:08:07.174Z,1.60
2019-01-29T13:10:35.645Z,1.80
2019-01-29T13:13:04.771Z,2.10
2019-01-29T13:15:34.443Z,2.30
2019-01-29T13:18:02.992Z,2.40
2019-01-29T13:20:31.607Z,2.60
2019-01-29T13:23:00.102Z,2.60
2019-01-29T13:25:28.707Z,2.50
2019-01-29T13:27:57.172Z,2.50
2019-01-29T13:30:28.928Z,2.90
2019-01-29T13:32:57.403Z,2.50
2019-01-29T13:35:28.694Z,2.30
2019-01-29T13:37:57.176Z,2.50
2019-01-29T13:40:25.612Z,2.50
2019-01-29T13:42:54.155Z,2.50
2019-01-29T13:45:23.067Z,2.50
2019-01-29T13:47:51.608Z,2.50
2019-01-29T13:50:25.805Z,2.40
2019-01-29T13:52:54.377Z,2.30
2019-01-29T13:55:22.929Z,2.00
2019-01-29T13:57:51.657Z,1.90
2019-01-29T14:00:31.926Z,1.90
2019-01-29T14:03:01.015Z,1.70
2019-01-29T14:05:29.578Z,1.50
2019-01-29T14:10:26.678Z,1.70
2019-01-29T14:12:55.275Z,1.70
2019-01-29T14:15:32.565Z,1.90
2019-01-29T14:18:01.077Z,2.10
2019-01-29T14:20:29.592Z,2.00
2019-01-29T14:22:58.084Z,2.00
2019-01-29T14:25:26.665Z,2.10
2019-01-29T14:27:55.138Z,1.80
2019-01-29T14:30:30.693Z,2.00
2019-01-29T14:32:59.358Z,2.10
2019-01-29T14:35:27.967Z,2.20
2019-01-29T14:38:02.205Z,2.30
2019-01-29T14:40:32.382Z,2.20
2019-01-29T14:43:00.861Z,1.80
2019-01-29T14:45:33.188Z,2.10
2019-01-29T14:48:01.770Z,2.00
2019-01-29T14:50:30.559Z,1.90
2019-01-29T14:52:59.057Z,1.80
2019-01-29T14:55:27.894Z,1.70
2019-01-29T14:57:56.533Z,1.60
2019-01-29T15:00:37.549Z,1.40
2019-01-29T15:03:05.959Z,1.40
2019-01-29T15:05:34.875Z,1.30
2019-01-29T15:08:03.488Z,1.20
2019-01-29T15:10:32.756Z,1.30
2019-01-29T15:13:01.444Z,1.10
2019-01-29T15:15:36.609Z,0.90
2019-01-29T15:18:25.486Z,1.10
2019-01-29T15:20:54.121Z,1.00
2019-01-29T15:23:22.623Z,0.60
2019-01-29T15:25:51.165Z,0.80
2019-01-29T15:28:19.725Z,0.80
2019-01-29T15:30:48.315Z,0.70
2019-01-29T15:33:17.011Z,0.70
2019-01-29T15:35:45.462Z,0.60
2019-01-29T15:38:13.985Z,0.60
2019-01-29T15:40:42.509Z,0.50
2019-01-29T15:43:11.002Z,0.50
2019-01-29T15:45:39.575Z,0.40
2019-01-29T15:48:08.141Z,0.30
2019-01-29T15:50:37.441Z,0.30
2019-01-29T15:53:06.571Z,0.20
2019-01-29T15:55:35.183Z,0.00
2019-01-29T15:58:05.299Z,0.10
2019-01-29T16:00:35.902Z,0.10
2019-01-29T16:03:05.212Z,0.00
2019-01-29T16:05:38.371Z,-0.10
2019-01-29T16:08:12.672Z,-1.00
2019-01-29T16:10:47.675Z,-0.30
2019-01-29T16:13:15.933Z,-0.50
2019-01-29T16:15:44.567Z,-0.50
2019-01-29T16:18:14.080Z,-0.50
2019-01-29T16:20:42.635Z,-0.80
2019-01-29T16:23:11.445Z,-0.30
2019-01-29T16:25:40.181Z,-0.70
2019-01-29T16:28:10.302Z,-0.70
2019-01-29T16:30:41.202Z,-0.30
2019-01-29T16:33:09.745Z,-0.80
2019-01-29T16:35:40.751Z,-1.00
2019-01-29T16:38:11.506Z,-1.00
2019-01-29T16:40:45.118Z,-0.80
2019-01-29T16:43:14.139Z,-1.00
2019-01-29T16:45:42.779Z,-1.00
2019-01-29T16:48:12.099Z,-1.10
2019-01-29T16:50:40.617Z,-1.00
2019-01-29T16:53:10.371Z,-0.90
2019-01-29T16:55:40.852Z,-1.30
2019-01-29T16:58:10.460Z,-1.10
2019-01-29T17:00:43.102Z,-1.20
2019-01-29T17:03:12.784Z,-1.10
2019-01-29T17:05:41.882Z,-1.20
2019-01-29T17:08:11.952Z,-1.20
2019-01-29T17:10:40.630Z,-1.10
2019-01-29T17:18:08.961Z,-1.40
2019-01-29T17:20:40.379Z,-1.30
2019-01-29T17:23:11.237Z,-0.80
2019-01-29T17:25:41.027Z,-1.60
2019-01-29T17:28:09.657Z,-1.00
2019-01-29T17:30:43.754Z,-1.50
2019-01-29T17:33:14.700Z,-1.40
2019-01-29T17:35:43.426Z,-1.60
2019-01-29T17:38:14.074Z,-1.50
2019-01-29T17:40:43.805Z,-1.60
2019-01-29T17:43:12.435Z,-1.80
2019-01-29T17:45:46.174Z,-1.60
2019-01-29T17:48:14.860Z,-1.60
2019-01-29T17:50:45.006Z,-1.70
2019-01-29T17:55:43.207Z,-1.70
2019-01-29T18:00:42.104Z,-1.80
2019-01-29T18:03:11.226Z,-1.60
2019-01-29T18:05:39.833Z,-1.90
2019-01-29T18:08:08.445Z,-1.70
2019-01-29T18:10:37.237Z,-1.80
2019-01-29T18:15:34.717Z,-1.80
2019-01-29T18:20:35.066Z,-1.70
2019-01-29T18:23:06.319Z,-1.90
2019-01-29T18:25:34.887Z,-1.80
2019-01-29T18:28:03.577Z,-2.00
2019-01-29T18:30:34.490Z,-1.90
2019-01-29T18:33:03.136Z,-2.40
2019-01-29T18:35:32.044Z,-2.00
2019-01-29T18:38:06.596Z,-1.80
2019-01-29T18:40:34.542Z,-2.00
2019-01-29T18:43:03.644Z,-2.20
2019-01-29T18:45:35.276Z,-2.10
2019-01-29T18:48:05.296Z,-2.10
2019-01-29T18:50:35.924Z,-2.10
2019-01-29T18:53:06.434Z,-2.30
2019-01-29T18:55:35.036Z,-2.10
2019-01-29T18:58:11.622Z,-2.50
2019-01-29T19:00:37.102Z,-2.10
2019-01-29T19:03:06.290Z,-2.20
2019-01-29T19:05:34.968Z,-2.10
2019-01-29T19:08:03.643Z,-2.40
2019-01-29T19:10:36.509Z,-2.20
2019-01-29T19:13:06.178Z,-2.40
2019-01-29T19:15:34.807Z,-2.60
2019-01-29T19:18:05.081Z,-2.40
2019-01-29T19:20:35.758Z,-2.30
2019-01-29T19:23:04.995Z,-2.50
2019-01-29T19:28:05.712Z,-2.50
2019-01-29T19:33:09.130Z,-2.70
2019-01-29T19:35:39.328Z,-2.60
2019-01-29T19:38:10.864Z,-2.60
2019-01-29T19:40:43.158Z,-2.60
2019-01-29T19:48:15.214Z,-2.90
2019-01-29T19:50:44.748Z,-2.50
2019-01-29T19:53:13.355Z,-2.70
2019-01-29T19:55:42.787Z,-2.50
2019-01-29T19:58:11.426Z,-2.70
2019-01-29T20:00:41.514Z,-2.10
2019-01-29T20:03:10.863Z,-2.70
2019-01-29T20:05:39.485Z,-2.60
2019-01-29T20:08:09.896Z,-2.60
2019-01-29T20:10:39.898Z,-2.50
2019-01-29T20:13:08.912Z,-2.30
2019-01-29T20:18:06.108Z,-2.70
2019-01-29T20:23:07.968Z,-2.70
2019-01-29T20:28:07.876Z,-2.20
2019-01-29T20:30:40.759Z,-2.60
2019-01-29T20:33:13.513Z,-2.60
2019-01-29T20:38:09.837Z,-2.80
2019-01-29T20:40:40.824Z,-3.20
2019-01-29T20:43:09.737Z,-2.90
2019-01-29T20:48:09.201Z,-2.90
2019-01-29T20:50:39.938Z,-2.90
2019-01-29T20:53:08.715Z,-2.90
2019-01-29T20:55:40.839Z,-3.20
2019-01-29T20:58:11.111Z,-3.30
2019-01-29T21:00:41.933Z,-3.10
2019-01-29T21:03:18.179Z,-3.00
2019-01-29T21:05:46.855Z,-3.10
2019-01-29T21:08:17.183Z,-2.90
2019-01-29T21:10:46.401Z,-3.20
2019-01-29T21:13:17.052Z,-3.00
2019-01-29T21:15:45.661Z,-3.10
2019-01-29T21:18:14.281Z,-3.10
2019-01-29T21:23:11.854Z,-3.10
2019-01-29T21:25:40.495Z,-3.10
2019-01-29T21:28:09.166Z,-3.10
2019-01-29T21:30:43.682Z,-3.00
2019-01-29T21:33:11.428Z,-2.40
2019-01-29T21:35:40.108Z,-3.10
2019-01-29T21:38:11.086Z,-3.10
2019-01-29T21:40:41.236Z,-3.10
2019-01-29T21:43:12.611Z,-3.20
2019-01-29T21:45:42.890Z,-3.20
2019-01-29T21:48:11.481Z,-3.20
2019-01-29T21:50:40.410Z,-3.20
2019-01-29T21:53:08.993Z,-3.20
2019-01-29T21:55:37.516Z,-3.20
2019-01-29T21:58:07.284Z,-3.20
2019-01-29T22:00:40.087Z,-3.00
2019-01-29T22:03:10.304Z,-3.30
2019-01-29T22:05:39.004Z,-3.40
2019-01-29T22:08:08.332Z,-3.10
2019-01-29T22:10:36.987Z,-3.20
2019-01-29T22:13:07.584Z,-3.20
2019-01-29T22:15:36.081Z,-3.10
2019-01-29T22:18:07.661Z,-3.20
2019-01-29T22:20:36.854Z,-3.10
2019-01-29T22:23:05.802Z,-3.10
2019-01-29T22:25:35.802Z,-3.40
2019-01-29T22:28:07.221Z,-3.20
2019-01-29T22:30:38.410Z,-3.40
2019-01-29T22:33:07.512Z,-3.30
2019-01-29T22:35:36.130Z,-3.70
2019-01-29T22:38:05.285Z,-3.30
2019-01-29T22:43:02.542Z,-3.60
2019-01-29T22:45:31.134Z,-3.30
2019-01-29T22:47:59.788Z,-3.30
2019-01-29T22:50:36.610Z,-3.40
2019-01-29T22:53:05.408Z,-3.40
2019-01-29T22:55:33.876Z,-3.60
2019-01-29T22:58:02.532Z,-3.40
2019-01-29T23:00:49.614Z,-3.40
2019-01-29T23:03:20.338Z,-3.50
2019-01-29T23:05:57.444Z,-3.50
2019-01-29T23:08:25.928Z,-3.60
2019-01-29T23:10:54.408Z,-2.30
2019-01-29T23:13:22.895Z,-3.60
2019-01-29T23:15:51.525Z,-3.60
2019-01-29T23:18:20.159Z,-3.70
2019-01-29T23:20:48.649Z,-3.80
2019-01-29T23:23:17.253Z,-3.60
2019-01-29T23:25:45.743Z,-3.80
2019-01-29T23:28:14.193Z,-3.70
2019-01-29T23:30:42.674Z,-4.20
2019-01-29T23:33:11.145Z,-3.70
2019-01-29T23:35:39.692Z,-3.90
2019-01-29T23:38:08.308Z,-3.80
2019-01-29T23:40:36.853Z,-4.00
2019-01-29T23:45:33.722Z,-3.90
2019-01-29T23:48:02.171Z,-3.90
2019-01-29T23:50:31.366Z,-3.70
2019-01-29T23:52:59.849Z,-3.80
2019-01-29T23:55:28.363Z,-3.80
2019-01-29T23:57:56.859Z,-3.80
